Time,TemperatureF,DewpointF,PressureIn,WindDirection,WindDirectionDegrees,WindSpeedMPH,WindSpeedGustMPH,Humidity,HourlyPrecipIn,Conditions,Clouds,dailyrainin,SoftwareType,DateUTC
2013-11-20 00:12:00,33.4,23.0,30.29,SSW,200,0.0,5.0,65,0.00,,,0.00,weatherlink.com 1.10,2013-11-20 05:12:00,
2013-11-20 00:27:00,33.3,23.0,30.30,SSW,196,3.0,5.0,65,0.00,,,0.00,weatherlink.com 1.10,2013-11-20 05:27:00,
2013-11-20 00:42:00,33.1,22.0,30.31,South,187,3.0,6.0,65,0.00,,,0.00,weatherlink.com 1.10,2013-11-20 05:42:00,
2013-11-20 00:57:00,32.9,22.0,30.31,South,173,2.0,7.0,64,0.00,,,0.00,weatherlink.com 1.10,2013-11-20 05:57:00,
2013-11-20 01:12:00,-999.0,-99.9,30.32,West,277,1.0,6.0,-999,0.00,,,0.00,weatherlink.com 1.10,2013-11-20 06:12:00,
2013-11-20 01:27:00,-999.0,-99.9,30.32,SSE,153,2.0,6.0,-999,0.00,,,0.00,weatherlink.com 1.10,2013-11-20 06:27:00,
2013-11-20 01:42:00,-999.0,-99.9,30.33,WSW,245,1.0,6.0,-999,0.00,,,0.00,weatherlink.com 1.10,2013-11-20 06:42:00,
2013-11-20 01:57:00,-999.0,-99.9,30.34,North,-999,-999.0,-999.0,-999,0.00,,,0.00,weatherlink.com 1.10,2013-11-20 06:57:00,
2013-11-20 02:13:00,-999.0,-99.9,30.34,North,-999,-999.0,-999.0,-999,0.00,,,0.00,weatherlink.com 1.10,2013-11-20 07:13:00,
2013-11-20 02:28:00,-999.0,-99.9,30.34,North,-999,-999.0,-999.0,-999,0.00,,,0.00,weatherlink.com 1.10,2013-11-20 07:28:00,
2013-11-20 02:43:00,-999.0,-99.9,30.34,North,-999,-999.0,-999.0,-999,0.00,,,0.00,weatherlink.com 1.10,2013-11-20 07:43:00,
2013-11-20 02:58:00,-999.0,-99.9,30.35,North,-999,-999.0,-999.0,-999,0.00,,,0.00,weatherlink.com 1.10,2013-11-20 07:58:00,
2013-11-20 03:13:00,-999.0,-99.9,30.36,North,-999,-999.0,-999.0,-999,0.00,,,0.00,weatherlink.com 1.10,2013-11-20 08:13:00,
2013-11-20 03:28:00,-999.0,-99.9,30.36,North,-999,-999.0,-999.0,-999,0.00,,,0.00,weatherlink.com 1.10,2013-11-20 08:28:00,
2013-11-20 03:43:00,-999.0,-99.9,30.36,North,-999,-999.0,-999.0,-999,0.00,,,0.00,weatherlink.com 1.10,2013-11-20 08:43:00,
2013-11-20 03:58:00,-999.0,-99.9,30.36,North,-999,-999.0,-999.0,-999,0.00,,,0.00,weatherlink.com 1.10,2013-11-20 08:58:00,
2013-11-20 04:13:00,-999.0,-99.9,30.37,North,-999,-999.0,-999.0,-999,0.00,,,0.00,weatherlink.com 1.10,2013-11-20 09:13:00,
2013-11-20 04:28:00,-999.0,-99.9,30.37,North,-999,-999.0,-999.0,-999,0.00,,,0.00,weatherlink.com 1.10,2013-11-20 09:28:00,
2013-11-20 04:43:00,-999.0,-99.9,30.38,North,-999,-999.0,-999.0,-999,0.00,,,0.00,weatherlink.com 1.10,2013-11-20 09:43:00,
2013-11-20 04:58:00,-999.0,-99.9,30.39,North,-999,-999.0,-999.0,-999,0.00,,,0.00,weatherlink.com 1.10,2013-11-20 09:58:00,
2013-11-20 05:13:00,-999.0,-99.9,30.40,North,-999,-999.0,-999.0,-999,0.00,,,0.00,weatherlink.com 1.10,2013-11-20 10:13:00,
2013-11-20 05:28:00,-999.0,-99.9,30.41,North,-999,-999.0,-999.0,-999,0.00,,,0.00,weatherlink.com 1.10,2013-11-20 10:28:00,
2013-11-20 05:44:00,-999.0,-99.9,30.42,North,-999,-999.0,-999.0,-999,0.00,,,0.00,weatherlink.com 1.10,2013-11-20 10:44:00,
2013-11-20 05:59:00,-999.0,-99.9,30.44,North,-999,-999.0,-999.0,-999,0.00,,,0.00,weatherlink.com 1.10,2013-11-20 10:59:00,
2013-11-20 06:29:00,-999.0,-99.9,30.46,North,-999,-999.0,-999.0,-999,0.00,,,0.00,weatherlink.com 1.10,2013-11-20 11:29:00,
2013-11-20 06:44:00,-999.0,-99.9,30.46,North,-999,-999.0,-999.0,-999,0.00,,,0.00,weatherlink.com 1.10,2013-11-20 11:44:00,
2013-11-20 06:59:00,-999.0,-99.9,30.47,North,-999,-999.0,-999.0,-999,0.00,,,0.00,weatherlink.com 1.10,2013-11-20 11:59:00,
2013-11-20 07:14:00,-999.0,-99.9,30.47,North,-999,-999.0,-999.0,-999,0.00,,,0.00,weatherlink.com 1.10,2013-11-20 12:14:00,
2013-11-20 07:29:00,-999.0,-99.9,30.47,NE,40,2.0,8.0,-999,0.00,,,0.00,weatherlink.com 1.10,2013-11-20 12:29:00,
2013-11-20 07:44:00,-999.0,-99.9,30.48,SSW,206,2.0,6.0,-999,0.00,,,0.00,weatherlink.com 1.10,2013-11-20 12:44:00,
2013-11-20 07:59:00,-999.0,-99.9,30.49,SSE,152,1.0,6.0,-999,0.00,,,0.00,weatherlink.com 1.10,2013-11-20 12:59:00,
2013-11-20 08:14:00,-999.0,-99.9,30.50,ESE,111,4.0,6.0,-999,0.00,,,0.00,weatherlink.com 1.10,2013-11-20 13:14:00,
2013-11-20 08:29:00,-999.0,-99.9,30.50,South,178,3.0,7.0,-999,0.00,,,0.00,weatherlink.com 1.10,2013-11-20 13:29:00,
2013-11-20 08:44:00,-999.0,-99.9,30.51,SE,124,1.0,6.0,-999,0.00,,,0.00,weatherlink.com 1.10,2013-11-20 13:44:00,
2013-11-20 09:00:00,33.8,20.0,30.51,SSE,161,2.0,9.0,58,0.00,,,0.00,weatherlink.com 1.10,2013-11-20 14:00:00,
2013-11-20 09:15:00,34.9,21.0,30.51,SSW,198,2.0,7.0,57,0.00,,,0.00,weatherlink.com 1.10,2013-11-20 14:15:00,
2013-11-20 09:30:00,35.3,20.0,30.52,ENE,68,3.0,9.0,55,0.00,,,0.00,weatherlink.com 1.10,2013-11-20 14:30:00,
2013-11-20 09:45:00,36.1,21.0,30.52,SSE,159,2.0,8.0,54,0.00,,,0.00,weatherlink.com 1.10,2013-11-20 14:45:00,
2013-11-20 10:00:00,37.1,21.0,30.52,South,183,1.0,6.0,53,0.00,,,0.00,weatherlink.com 1.10,2013-11-20 15:00:00,
2013-11-20 10:15:00,37.7,20.0,30.52,West,263,3.0,4.0,50,0.00,,,0.00,weatherlink.com 1.10,2013-11-20 15:15:00,
2013-11-20 10:30:00,38.6,20.0,30.53,SW,232,1.0,6.0,48,0.00,,,0.00,weatherlink.com 1.10,2013-11-20 15:30:00,
2013-11-20 10:45:00,39.3,20.0,30.52,West,264,3.0,5.0,46,0.00,,,0.00,weatherlink.com 1.10,2013-11-20 15:45:00,
2013-11-20 11:00:00,39.5,19.0,30.51,ESE,103,1.0,6.0,44,0.00,,,0.00,weatherlink.com 1.10,2013-11-20 16:00:00,
2013-11-20 11:15:00,40.0,18.0,30.51,ENE,60,1.0,5.0,42,0.00,,,0.00,weatherlink.com 1.10,2013-11-20 16:15:00,
2013-11-20 11:30:00,40.7,19.0,30.51,ESE,117,2.0,5.0,41,0.00,,,0.00,weatherlink.com 1.10,2013-11-20 16:30:00,
2013-11-20 11:45:00,40.9,18.0,30.51,SW,222,3.0,10.0,39,0.00,,,0.00,weatherlink.com 1.10,2013-11-20 16:45:00,
2013-11-20 12:00:00,41.7,20.0,30.50,ESE,121,2.0,8.0,42,0.00,,,0.00,weatherlink.com 1.10,2013-11-20 17:00:00,
2013-11-20 12:15:00,41.9,18.0,30.51,NE,46,3.0,7.0,39,0.00,,,0.00,weatherlink.com 1.10,2013-11-20 17:15:00,
2013-11-20 12:30:00,42.5,18.0,30.50,SW,214,3.0,5.0,38,0.00,,,0.00,weatherlink.com 1.10,2013-11-20 17:30:00,
2013-11-20 12:45:00,42.8,19.0,30.50,West,266,0.0,6.0,39,0.00,,,0.00,weatherlink.com 1.10,2013-11-20 17:45:00,
2013-11-20 13:00:00,43.8,20.0,30.50,SSW,198,1.0,5.0,38,0.00,,,0.00,weatherlink.com 1.10,2013-11-20 18:00:00,
2013-11-20 13:15:00,43.9,19.0,30.50,SSE,155,0.0,5.0,37,0.00,,,0.00,weatherlink.com 1.10,2013-11-20 18:15:00,
2013-11-20 13:30:00,44.3,17.0,30.50,SE,138,1.0,5.0,33,0.00,,,0.00,weatherlink.com 1.10,2013-11-20 18:30:00,
2013-11-20 13:45:00,44.2,17.0,30.50,East,98,0.0,5.0,33,0.00,,,0.00,weatherlink.com 1.10,2013-11-20 18:45:00,
2013-11-20 14:00:00,44.3,17.0,30.49,ENE,71,1.0,7.0,33,0.00,,,0.00,weatherlink.com 1.10,2013-11-20 19:00:00,
2013-11-20 14:15:00,44.0,15.0,30.50,ENE,72,2.0,5.0,31,0.00,,,0.00,weatherlink.com 1.10,2013-11-20 19:15:00,
2013-11-20 14:30:00,43.5,16.0,30.51,West,264,1.0,6.0,33,0.00,,,0.00,weatherlink.com 1.10,2013-11-20 19:30:00,
2013-11-20 14:45:00,43.3,17.0,30.51,South,183,1.0,4.0,34,0.00,,,0.00,weatherlink.com 1.10,2013-11-20 19:45:00,
2013-11-20 15:00:00,43.0,16.0,30.51,SSE,150,0.0,3.0,33,0.00,,,0.00,weatherlink.com 1.10,2013-11-20 20:00:00,
2013-11-20 15:15:00,42.4,15.0,30.52,SW,219,1.0,4.0,33,0.00,,,0.00,weatherlink.com 1.10,2013-11-20 20:15:00,
2013-11-20 15:30:00,41.7,16.0,30.52,SSE,162,0.0,3.0,35,0.00,,,0.00,weatherlink.com 1.10,2013-11-20 20:30:00,
2013-11-20 15:45:00,41.2,15.0,30.53,NNW,330,0.0,3.0,35,0.00,,,0.00,weatherlink.com 1.10,2013-11-20 20:45:00,
2013-11-20 16:00:00,40.3,16.0,30.53,WSW,240,0.0,2.0,37,0.00,,,0.00,weatherlink.com 1.10,2013-11-20 21:00:00,
2013-11-20 16:15:00,38.7,17.0,30.54,SSW,198,0.0,1.0,41,0.00,,,0.00,weatherlink.com 1.10,2013-11-20 21:15:00,
2013-11-20 16:30:00,37.6,15.0,30.54,West,267,0.0,1.0,40,0.00,,,0.00,weatherlink.com 1.10,2013-11-20 21:30:00,
2013-11-20 16:45:00,36.5,16.0,30.54,SSW,204,0.0,2.0,44,0.00,,,0.00,weatherlink.com 1.10,2013-11-20 21:45:00,
2013-11-20 17:01:00,35.9,16.0,30.54,SW,236,0.0,1.0,45,0.00,,,0.00,weatherlink.com 1.10,2013-11-20 22:01:00,
2013-11-20 17:16:00,-999.0,-99.9,30.55,SE,124,0.0,1.0,44,0.00,,,0.00,weatherlink.com 1.10,2013-11-20 22:16:00,
2013-11-20 17:31:00,-999.0,-99.9,30.55,SSE,166,0.0,2.0,-999,0.00,,,0.00,weatherlink.com 1.10,2013-11-20 22:31:00,
2013-11-20 17:46:00,-999.0,-99.9,30.55,South,177,0.0,1.0,-999,0.00,,,0.00,weatherlink.com 1.10,2013-11-20 22:46:00,
2013-11-20 18:01:00,-999.0,-99.9,30.56,South,181,0.0,1.0,-999,0.00,,,0.00,weatherlink.com 1.10,2013-11-20 23:01:00,
2013-11-20 18:16:00,-999.0,-99.9,30.56,South,183,0.0,0.0,-999,0.00,,,0.00,weatherlink.com 1.10,2013-11-20 23:16:00,
2013-11-20 18:31:00,-999.0,-99.9,30.56,South,191,0.0,1.0,-999,0.00,,,0.00,weatherlink.com 1.10,2013-11-20 23:31:00,
2013-11-20 18:46:00,-999.0,-99.9,30.57,West,267,0.0,1.0,-999,0.00,,,0.00,weatherlink.com 1.10,2013-11-20 23:46:00,
2013-11-20 19:01:00,-999.0,-99.9,30.57,WSW,242,0.0,1.0,-999,0.00,,,0.00,weatherlink.com 1.10,2013-11-21 00:01:00,
2013-11-20 19:16:00,-999.0,-99.9,30.57,SW,214,0.0,1.0,-999,0.00,,,0.00,weatherlink.com 1.10,2013-11-21 00:16:00,
2013-11-20 19:31:00,-999.0,-99.9,30.58,SE,132,0.0,1.0,-999,0.00,,,0.00,weatherlink.com 1.10,2013-11-21 00:31:00,
2013-11-20 19:46:00,-90.0,-99.9,30.58,SW,235,0.0,1.0,-999,0.00,,,0.00,weatherlink.com 1.10,2013-11-21 00:46:00,
2013-11-20 20:01:00,-999.0,-99.9,30.59,NW,308,0.0,1.0,-999,0.00,,,0.00,weatherlink.com 1.10,2013-11-21 01:01:00,
2013-11-20 20:16:00,-999.0,-99.9,30.58,East,89,0.0,2.0,-999,0.00,,,0.00,weatherlink.com 1.10,2013-11-21 01:16:00,
2013-11-20 20:31:00,-999.0,-99.9,30.58,East,91,0.0,2.0,-999,0.00,,,0.00,weatherlink.com 1.10,2013-11-21 01:31:00,
2013-11-20 20:47:00,-999.0,-99.9,30.58,SSE,147,0.0,2.0,-999,0.00,,,0.00,weatherlink.com 1.10,2013-11-21 01:47:00,
2013-11-20 21:02:00,-999.0,-99.9,30.58,SE,131,0.0,5.0,-999,0.00,,,0.00,weatherlink.com 1.10,2013-11-21 02:02:00,
2013-11-20 21:17:00,-999.0,-99.9,30.58,ESE,117,2.0,4.0,-999,0.00,,,0.00,weatherlink.com 1.10,2013-11-21 02:17:00,
2013-11-20 21:32:00,-999.0,-99.9,30.58,East,86,1.0,4.0,-999,0.00,,,0.00,weatherlink.com 1.10,2013-11-21 02:32:00,
2013-11-20 21:47:00,-999.0,-99.9,30.58,NE,55,1.0,4.0,-999,0.00,,,0.00,weatherlink.com 1.10,2013-11-21 02:47:00,
2013-11-20 22:02:00,-999.0,-99.9,30.59,East,88,1.0,1.0,-999,0.00,,,0.00,weatherlink.com 1.10,2013-11-21 03:02:00,
2013-11-20 22:17:00,-999.0,-99.9,30.59,ESE,105,0.0,2.0,-999,0.00,,,0.00,weatherlink.com 1.10,2013-11-21 03:17:00,
2013-11-20 22:32:00,-999.0,-99.9,30.60,North,8,0.0,1.0,-999,0.00,,,0.00,weatherlink.com 1.10,2013-11-21 03:32:00,
2013-11-20 22:47:00,-999.0,-99.9,30.60,North,1,0.0,0.0,-999,0.00,,,0.00,weatherlink.com 1.10,2013-11-21 03:47:00,
2013-11-20 23:02:00,-999.0,-99.9,30.60,West,277,0.0,1.0,-999,0.00,,,0.00,weatherlink.com 1.10,2013-11-21 04:02:00,
2013-11-20 23:17:00,-999.0,-99.9,30.60,WNW,302,0.0,1.0,-999,0.00,,,0.00,weatherlink.com 1.10,2013-11-21 04:17:00,
2013-11-20 23:32:00,-999.0,-99.9,30.60,West,266,0.0,1.0,-999,0.00,,,0.00,weatherlink.com 1.10,2013-11-21 04:32:00,
2013-11-20 23:47:00,-999.0,-99.9,30.60,WSW,242,0.0,1.0,-999,0.00,,,0.00,weatherlink.com 1.10,2013-11-21 04:47:00,